createdAt,value
2018-08-17T00:00:22.936Z,919.30
2018-08-17T00:01:22.901Z,919.36
2018-08-17T00:02:22.872Z,919.40
2018-08-17T00:03:24.080Z,919.46
2018-08-17T00:04:22.828Z,919.50
2018-08-17T00:05:22.790Z,919.51
2018-08-17T00:06:22.750Z,919.59
2018-08-17T00:07:22.713Z,919.60
2018-08-17T00:08:22.695Z,919.59
2018-08-17T00:09:22.662Z,919.62
2018-08-17T00:10:22.631Z,919.59
2018-08-17T00:11:22.615Z,919.56
2018-08-17T00:12:22.559Z,919.63
2018-08-17T00:13:22.549Z,919.63
2018-08-17T00:14:22.499Z,919.60
2018-08-17T00:15:22.723Z,919.66
2018-08-17T00:16:22.459Z,919.73
2018-08-17T00:17:22.432Z,919.74
2018-08-17T00:18:22.375Z,919.67
2018-08-17T00:19:22.351Z,919.68
2018-08-17T00:20:22.626Z,919.67
2018-08-17T00:21:22.291Z,919.67
2018-08-17T00:22:22.289Z,919.64
2018-08-17T00:23:22.265Z,919.68
2018-08-17T00:24:22.194Z,919.67
2018-08-17T00:25:22.200Z,919.71
2018-08-17T00:26:22.297Z,919.70
2018-08-17T00:27:22.101Z,919.75
2018-08-17T00:28:22.133Z,919.80
2018-08-17T00:29:22.040Z,919.81
2018-08-17T00:30:22.023Z,919.84
2018-08-17T00:31:21.994Z,919.86
2018-08-17T00:32:22.360Z,919.83
2018-08-17T00:33:21.920Z,919.86
2018-08-17T00:34:21.890Z,919.90
2018-08-17T00:35:21.870Z,919.88
2018-08-17T00:36:21.829Z,919.91
2018-08-17T00:37:21.790Z,919.86
2018-08-17T00:38:22.011Z,919.89
2018-08-17T00:39:21.760Z,919.88
2018-08-17T00:40:21.705Z,919.85
2018-08-17T00:41:21.698Z,919.88
2018-08-17T00:42:21.672Z,919.89
2018-08-17T00:43:21.943Z,919.90
2018-08-17T00:44:21.633Z,919.86
2018-08-17T00:45:21.554Z,919.84
2018-08-17T00:46:21.547Z,919.87
2018-08-17T00:47:21.582Z,919.88
2018-08-17T00:48:21.458Z,919.88
2018-08-17T00:49:21.433Z,919.92
2018-08-17T00:50:21.412Z,919.94
2018-08-17T00:51:21.367Z,919.92
2018-08-17T00:52:21.348Z,919.91
2018-08-17T00:53:21.301Z,919.92
2018-08-17T00:54:21.708Z,919.91
2018-08-17T00:55:21.321Z,919.93
2018-08-17T00:56:21.291Z,919.91
2018-08-17T00:57:21.171Z,919.90
2018-08-17T00:58:21.162Z,919.90
2018-08-17T00:59:21.133Z,919.91
2018-08-17T01:00:21.115Z,919.92
2018-08-17T01:01:21.056Z,919.96
2018-08-17T01:02:21.055Z,919.99
2018-08-17T01:03:20.994Z,920.04
2018-08-17T01:04:20.980Z,920.01
2018-08-17T01:05:20.941Z,920.01
2018-08-17T01:06:20.916Z,920.03
2018-08-17T01:07:20.885Z,920.01
2018-08-17T01:08:20.870Z,920.04
2018-08-17T01:09:20.841Z,920.13
2018-08-17T01:10:20.779Z,920.11
2018-08-17T01:11:20.753Z,920.17
2018-08-17T01:12:20.742Z,920.18
2018-08-17T01:13:20.716Z,920.22
2018-08-17T01:14:20.654Z,920.23
2018-08-17T01:15:20.643Z,920.25
2018-08-17T01:16:20.625Z,920.26
2018-08-17T01:17:20.574Z,920.26
2018-08-17T01:18:20.532Z,920.25
2018-08-17T01:19:20.518Z,920.25
2018-08-17T01:20:20.494Z,920.28
2018-08-17T01:21:20.476Z,920.26
2018-08-17T01:22:20.458Z,920.26
2018-08-17T01:23:20.377Z,920.25
2018-08-17T01:24:20.348Z,920.27
2018-08-17T01:25:20.312Z,920.27
2018-08-17T01:26:20.321Z,920.32
2018-08-17T01:27:20.287Z,920.34
2018-08-17T01:28:20.257Z,920.34
2018-08-17T01:29:20.193Z,920.38
2018-08-17T01:30:20.184Z,920.40
2018-08-17T01:31:20.283Z,920.43
2018-08-17T01:32:20.116Z,920.41
2018-08-17T01:33:20.075Z,920.42
2018-08-17T01:34:20.043Z,920.43
2018-08-17T01:35:20.006Z,920.48
2018-08-17T01:36:19.975Z,920.45
2018-08-17T01:37:19.954Z,920.47
2018-08-17T01:38:19.929Z,920.49
2018-08-17T01:39:19.884Z,920.47
2018-08-17T01:40:19.853Z,920.44
2018-08-17T01:41:19.827Z,920.46
2018-08-17T01:42:19.795Z,920.45
2018-08-17T01:43:19.772Z,920.42
2018-08-17T01:44:19.733Z,920.46
2018-08-17T01:45:19.697Z,920.47
2018-08-17T01:46:19.785Z,920.51
2018-08-17T01:47:19.661Z,920.52
2018-08-17T01:48:19.608Z,920.54
2018-08-17T01:49:19.621Z,920.53
2018-08-17T01:50:19.544Z,920.56
2018-08-17T01:51:19.520Z,920.50
2018-08-17T01:52:19.838Z,920.50
2018-08-17T01:53:19.464Z,920.46
2018-08-17T01:54:19.425Z,920.46
2018-08-17T01:55:19.396Z,920.46
2018-08-17T01:56:19.365Z,920.44
2018-08-17T01:57:19.430Z,920.43
2018-08-17T01:58:19.300Z,920.38
2018-08-17T01:59:19.276Z,920.35
2018-08-17T02:00:19.253Z,920.32
2018-08-17T02:01:19.217Z,920.29
2018-08-17T02:02:19.170Z,920.22
2018-08-17T02:03:19.143Z,920.19
2018-08-17T02:04:19.110Z,920.17
2018-08-17T02:05:19.099Z,920.13
2018-08-17T02:06:19.051Z,920.11
2018-08-17T02:07:19.023Z,920.05
2018-08-17T02:08:18.994Z,920.04
2018-08-17T02:09:18.955Z,920.08
2018-08-17T02:10:18.927Z,920.09
2018-08-17T02:11:18.898Z,920.06
2018-08-17T02:12:18.864Z,920.08
2018-08-17T02:13:18.841Z,920.07
2018-08-17T02:14:18.856Z,920.11
2018-08-17T02:15:18.771Z,920.10
2018-08-17T02:16:18.764Z,920.10
2018-08-17T02:17:19.009Z,920.12
2018-08-17T02:18:18.696Z,920.06
2018-08-17T02:19:18.652Z,920.09
2018-08-17T02:20:18.660Z,920.08
2018-08-17T02:21:18.594Z,920.06
2018-08-17T02:22:18.566Z,920.07
2018-08-17T02:23:18.522Z,920.09
2018-08-17T02:24:18.533Z,920.07
2018-08-17T02:25:18.460Z,920.07
2018-08-17T02:26:18.440Z,920.08
2018-08-17T02:27:18.417Z,920.06
2018-08-17T02:28:18.667Z,920.02
2018-08-17T02:29:18.342Z,920.05
2018-08-17T02:30:18.304Z,920.00
2018-08-17T02:31:18.271Z,920.00
2018-08-17T02:32:18.265Z,920.01
2018-08-17T02:33:18.226Z,920.04
2018-08-17T02:34:18.430Z,920.00
2018-08-17T02:35:18.175Z,920.04
2018-08-17T02:36:18.122Z,920.01
2018-08-17T02:37:18.102Z,920.03
2018-08-17T02:38:18.065Z,920.06
2018-08-17T02:39:18.036Z,920.07
2018-08-17T02:40:18.051Z,920.08
2018-08-17T02:41:17.971Z,920.05
2018-08-17T02:42:17.955Z,920.08
2018-08-17T02:43:17.919Z,920.04
2018-08-17T02:44:17.905Z,920.00
2018-08-17T02:45:17.842Z,919.95
2018-08-17T02:46:17.813Z,919.97
2018-08-17T02:47:17.780Z,919.98
2018-08-17T02:48:17.757Z,920.03
2018-08-17T02:49:17.728Z,920.09
2018-08-17T02:50:17.717Z,920.10
2018-08-17T02:51:18.012Z,920.11
2018-08-17T02:52:17.624Z,920.16
2018-08-17T02:53:17.596Z,920.12
2018-08-17T02:54:17.563Z,920.14
2018-08-17T02:55:17.535Z,920.14
2018-08-17T02:56:17.903Z,920.14
2018-08-17T02:57:17.473Z,920.17
2018-08-17T02:58:17.441Z,920.17
2018-08-17T02:59:17.417Z,920.16
2018-08-17T03:00:17.437Z,920.14
2018-08-17T03:01:17.345Z,920.14
2018-08-17T03:02:17.520Z,920.11
2018-08-17T03:03:17.307Z,920.13
2018-08-17T03:04:17.267Z,920.16
2018-08-17T03:05:17.235Z,920.16
2018-08-17T03:06:17.195Z,920.11
2018-08-17T03:07:17.165Z,920.12
2018-08-17T03:08:17.387Z,920.09
2018-08-17T03:09:17.121Z,920.12
2018-08-17T03:10:17.070Z,920.14
2018-08-17T03:11:17.046Z,920.14
2018-08-17T03:12:17.022Z,920.13
2018-08-17T03:13:16.973Z,920.14
2018-08-17T03:14:17.142Z,920.09
2018-08-17T03:15:16.916Z,920.11
2018-08-17T03:16:16.893Z,920.08
2018-08-17T03:17:16.850Z,920.01
2018-08-17T03:18:16.825Z,920.06
2018-08-17T03:19:16.793Z,920.04
2018-08-17T03:20:16.762Z,920.05
2018-08-17T03:21:16.722Z,920.08
2018-08-17T03:22:16.723Z,920.05
2018-08-17T03:23:16.663Z,920.08
2018-08-17T03:24:16.679Z,920.06
2018-08-17T03:25:16.609Z,920.06
2018-08-17T03:26:16.567Z,920.07
2018-08-17T03:27:16.546Z,920.10
2018-08-17T03:28:16.512Z,920.08
2018-08-17T03:29:16.480Z,920.14
2018-08-17T03:30:16.820Z,920.15
2018-08-17T03:31:16.412Z,920.16
2018-08-17T03:32:16.380Z,920.17
2018-08-17T03:33:16.349Z,920.11
2018-08-17T03:34:16.330Z,920.11
2018-08-17T03:35:16.287Z,920.09
2018-08-17T03:36:16.411Z,920.07
2018-08-17T03:37:16.314Z,920.10
2018-08-17T03:38:16.252Z,920.06
2018-08-17T03:39:16.172Z,920.04
2018-08-17T03:40:16.135Z,920.05
2018-08-17T03:41:16.100Z,920.03
2018-08-17T03:42:16.236Z,919.99
2018-08-17T03:43:16.045Z,919.98
2018-08-17T03:44:16.027Z,919.96
2018-08-17T03:45:15.977Z,919.98
2018-08-17T03:46:15.952Z,919.98
2018-08-17T03:47:15.924Z,919.98
2018-08-17T03:48:15.882Z,919.95
2018-08-17T03:49:15.855Z,919.97
2018-08-17T03:50:15.822Z,919.93
2018-08-17T03:51:15.794Z,919.98
2018-08-17T03:52:15.759Z,919.93
2018-08-17T03:53:15.757Z,919.94
2018-08-17T03:54:15.711Z,919.93
2018-08-17T03:55:15.684Z,919.83
2018-08-17T03:56:15.640Z,919.85
2018-08-17T03:57:15.608Z,919.82
2018-08-17T03:58:15.675Z,919.79
2018-08-17T03:59:15.563Z,919.80
2018-08-17T04:00:15.508Z,919.75
2018-08-17T04:01:15.486Z,919.77
2018-08-17T04:02:15.455Z,919.71
2018-08-17T04:03:15.416Z,919.66
2018-08-17T04:04:15.389Z,919.64
2018-08-17T04:05:15.357Z,919.60
2018-08-17T04:06:15.324Z,919.60
2018-08-17T04:07:15.290Z,919.59
2018-08-17T04:08:15.267Z,919.55
2018-08-17T04:09:15.427Z,919.50
2018-08-17T04:10:15.215Z,919.52
2018-08-17T04:11:15.172Z,919.52
2018-08-17T04:12:15.138Z,919.54
2018-08-17T04:13:15.126Z,919.52
2018-08-17T04:14:15.086Z,919.52
2018-08-17T04:15:15.253Z,919.54
2018-08-17T04:16:15.068Z,919.52
2018-08-17T04:17:15.066Z,919.57
2018-08-17T04:18:14.963Z,919.57
2018-08-17T04:19:14.922Z,919.56
2018-08-17T04:20:14.900Z,919.59
2018-08-17T04:21:14.862Z,919.59
2018-08-17T04:22:14.827Z,919.63
2018-08-17T04:23:14.792Z,919.60
2018-08-17T04:24:14.759Z,919.64
2018-08-17T04:25:14.741Z,919.61
2018-08-17T04:26:14.768Z,919.56
2018-08-17T04:27:14.685Z,919.56
2018-08-17T04:28:14.635Z,919.57
2018-08-17T04:29:14.618Z,919.58
2018-08-17T04:30:14.573Z,919.54
2018-08-17T04:31:14.640Z,919.52
2018-08-17T04:32:14.518Z,919.54
2018-08-17T04:33:14.494Z,919.49
2018-08-17T04:34:14.452Z,919.47
2018-08-17T04:35:14.423Z,919.49
2018-08-17T04:36:14.392Z,919.46
2018-08-17T04:37:14.660Z,919.49
2018-08-17T04:38:14.330Z,919.50
2018-08-17T04:39:14.300Z,919.44
2018-08-17T04:40:14.265Z,919.42
2018-08-17T04:41:14.234Z,919.39
2018-08-17T04:42:14.200Z,919.40
2018-08-17T04:43:14.267Z,919.39
2018-08-17T04:44:14.150Z,919.37
2018-08-17T04:45:14.117Z,919.39
2018-08-17T04:46:14.079Z,919.36
2018-08-17T04:47:14.047Z,919.36
2018-08-17T04:48:14.018Z,919.38
2018-08-17T04:49:14.041Z,919.41
2018-08-17T04:50:14.029Z,919.41
2018-08-17T04:51:13.924Z,919.42
2018-08-17T04:52:13.890Z,919.37
2018-08-17T04:53:13.866Z,919.35
2018-08-17T04:54:13.831Z,919.29
2018-08-17T04:55:13.861Z,919.31
2018-08-17T04:56:13.763Z,919.30
2018-08-17T04:57:13.756Z,919.21
2018-08-17T04:58:14.008Z,919.26
2018-08-17T04:59:13.695Z,919.19
2018-08-17T05:00:13.642Z,919.15
2018-08-17T05:01:13.613Z,919.12
2018-08-17T05:02:13.587Z,919.13
2018-08-17T05:03:13.565Z,919.09
2018-08-17T05:04:13.515Z,919.06
2018-08-17T05:05:13.487Z,919.03
2018-08-17T05:06:13.460Z,918.99
2018-08-17T05:07:13.426Z,919.00
2018-08-17T05:08:13.408Z,919.00
2018-08-17T05:09:13.565Z,918.98
2018-08-17T05:10:13.323Z,918.97
2018-08-17T05:11:13.297Z,918.94
2018-08-17T05:12:13.282Z,918.89
2018-08-17T05:13:13.235Z,918.90
2018-08-17T05:14:13.205Z,918.86
2018-08-17T05:15:13.574Z,918.83
2018-08-17T05:16:13.141Z,918.77
2018-08-17T05:17:13.113Z,918.80
2018-08-17T05:18:13.079Z,918.81
2018-08-17T05:19:13.111Z,918.78
2018-08-17T05:20:13.024Z,918.75
2018-08-17T05:21:13.183Z,918.78
2018-08-17T05:22:12.957Z,918.71
2018-08-17T05:23:12.976Z,918.68
2018-08-17T05:24:12.897Z,918.70
2018-08-17T05:25:12.869Z,918.68
2018-08-17T05:27:12.799Z,918.65
2018-08-17T05:28:12.764Z,918.63
2018-08-17T05:29:12.732Z,918.64
2018-08-17T05:30:12.738Z,918.63
2018-08-17T05:31:12.672Z,918.61
2018-08-17T05:32:13.008Z,918.65
2018-08-17T05:33:12.615Z,918.66
2018-08-17T05:34:12.595Z,918.65
2018-08-17T05:35:12.548Z,918.65
2018-08-17T05:36:12.515Z,918.62
2018-08-17T05:37:12.489Z,918.60
2018-08-17T05:38:12.450Z,918.58
2018-08-17T05:39:12.446Z,918.61
2018-08-17T05:40:12.387Z,918.61
2018-08-17T05:41:12.359Z,918.61
2018-08-17T05:42:12.333Z,918.63
2018-08-17T05:43:12.495Z,918.57
2018-08-17T05:44:12.262Z,918.60
2018-08-17T05:45:12.335Z,918.60
2018-08-17T05:46:12.202Z,918.60
2018-08-17T05:47:12.168Z,918.62
2018-08-17T05:48:12.144Z,918.60
2018-08-17T05:49:12.463Z,918.61
2018-08-17T05:50:12.075Z,918.63
2018-08-17T05:51:12.047Z,918.66
2018-08-17T05:52:12.020Z,918.73
2018-08-17T05:53:11.980Z,918.78
2018-08-17T05:54:11.949Z,918.86
2018-08-17T05:55:12.019Z,918.92
2018-08-17T05:56:11.888Z,918.96
2018-08-17T05:57:11.869Z,919.01
2018-08-17T05:58:11.824Z,919.02
2018-08-17T05:59:11.798Z,919.02
2018-08-17T06:00:11.781Z,919.01
2018-08-17T06:02:11.701Z,918.97
2018-08-17T06:03:11.666Z,918.97
2018-08-17T06:04:11.644Z,918.96
2018-08-17T06:05:11.605Z,918.95
2018-08-17T06:06:11.783Z,918.93
2018-08-17T06:07:11.581Z,918.91
2018-08-17T06:08:11.510Z,918.87
2018-08-17T06:09:11.478Z,918.87
2018-08-17T06:10:11.448Z,918.84
2018-08-17T06:11:11.510Z,918.79
2018-08-17T06:12:11.586Z,918.79
2018-08-17T06:13:11.403Z,918.77
2018-08-17T06:14:11.324Z,918.77
2018-08-17T06:15:11.288Z,918.74
2018-08-17T06:16:11.270Z,918.69
2018-08-17T06:17:11.225Z,918.68
2018-08-17T06:18:11.247Z,918.66
2018-08-17T06:19:11.213Z,918.69
2018-08-17T06:20:11.134Z,918.68
2018-08-17T06:21:11.104Z,918.65
2018-08-17T06:22:11.069Z,918.70
2018-08-17T06:23:11.037Z,918.71
2018-08-17T06:24:11.011Z,918.69
2018-08-17T06:25:10.974Z,918.71
2018-08-17T06:26:10.949Z,918.71
2018-08-17T06:27:10.913Z,918.70
2018-08-17T06:28:11.184Z,918.67
2018-08-17T06:29:10.853Z,918.65
2018-08-17T06:30:10.820Z,918.64
2018-08-17T06:31:10.792Z,918.57
2018-08-17T06:32:10.759Z,918.62
2018-08-17T06:33:10.724Z,918.59
2018-08-17T06:34:10.690Z,918.54
2018-08-17T06:35:10.665Z,918.52
2018-08-17T06:36:10.665Z,918.49
2018-08-17T06:37:10.657Z,918.49
2018-08-17T06:38:10.634Z,918.49
2018-08-17T06:39:10.745Z,918.47
2018-08-17T06:40:10.502Z,918.45
2018-08-17T06:41:10.470Z,918.43
2018-08-17T06:42:10.443Z,918.41
2018-08-17T06:43:10.437Z,918.36
2018-08-17T06:44:10.376Z,918.38
2018-08-17T06:45:10.652Z,918.34
2018-08-17T06:46:10.314Z,918.32
2018-08-17T06:47:10.288Z,918.29
2018-08-17T06:48:10.254Z,918.30
2018-08-17T06:49:10.218Z,918.27
2018-08-17T06:50:10.191Z,918.25
2018-08-17T06:51:10.354Z,918.26
2018-08-17T06:52:10.128Z,918.25
2018-08-17T06:53:10.098Z,918.29
2018-08-17T06:54:10.068Z,918.29
2018-08-17T06:55:10.029Z,918.28
2018-08-17T06:56:10.002Z,918.28
2018-08-17T06:57:10.008Z,918.34
2018-08-17T06:58:09.945Z,918.32
2018-08-17T06:59:09.907Z,918.37
2018-08-17T07:00:09.873Z,918.36
2018-08-17T07:01:09.894Z,918.40
2018-08-17T07:02:09.808Z,918.40
2018-08-17T07:03:09.781Z,918.39
2018-08-17T07:04:09.752Z,918.42
2018-08-17T07:05:09.718Z,918.43
2018-08-17T07:06:09.687Z,918.42
2018-08-17T07:07:09.650Z,918.43
2018-08-17T07:08:09.629Z,918.42
2018-08-17T07:09:09.613Z,918.42
2018-08-17T07:10:09.571Z,918.43
2018-08-17T07:11:09.531Z,918.38
2018-08-17T07:12:09.506Z,918.39
2018-08-17T07:13:09.465Z,918.38
2018-08-17T07:14:09.436Z,918.33
2018-08-17T07:15:09.401Z,918.33
2018-08-17T07:16:09.370Z,918.26
2018-08-17T07:17:09.339Z,918.37
2018-08-17T07:18:09.556Z,918.34
2018-08-17T07:19:09.273Z,918.35
2018-08-17T07:20:09.244Z,918.37
2018-08-17T07:21:09.211Z,918.40
2018-08-17T07:22:09.180Z,918.42
2018-08-17T07:23:09.149Z,918.41
2018-08-17T07:24:09.466Z,918.44
2018-08-17T07:25:09.088Z,918.43
2018-08-17T07:26:09.055Z,918.42
2018-08-17T07:27:09.023Z,918.35
2018-08-17T07:28:09.033Z,918.36
2018-08-17T07:29:08.959Z,918.31
2018-08-17T07:30:08.928Z,918.30
2018-08-17T07:31:08.896Z,918.29
2018-08-17T07:32:08.866Z,918.27
2018-08-17T07:33:08.855Z,918.25
2018-08-17T07:34:08.804Z,918.27
2018-08-17T07:35:08.779Z,918.24
2018-08-17T07:36:08.737Z,918.24
2018-08-17T07:37:08.707Z,918.22
2018-08-17T07:38:08.676Z,918.18
2018-08-17T07:39:08.731Z,918.21
2018-08-17T07:40:08.613Z,918.24
2018-08-17T07:41:08.582Z,918.28
2018-08-17T07:42:08.552Z,918.26
2018-08-17T07:43:08.521Z,918.28
2018-08-17T07:44:08.491Z,918.27
2018-08-17T07:45:08.715Z,918.29
2018-08-17T07:46:08.429Z,918.26
2018-08-17T07:47:08.394Z,918.29
2018-08-17T07:48:08.531Z,918.28
2018-08-17T07:49:08.328Z,918.28
2018-08-17T07:50:08.303Z,918.27
2018-08-17T07:51:08.365Z,918.29
2018-08-17T07:52:08.234Z,918.27
2018-08-17T07:53:08.219Z,918.26
2018-08-17T07:54:08.172Z,918.26
2018-08-17T07:55:08.142Z,918.29
2018-08-17T07:56:08.108Z,918.32
2018-08-17T07:57:08.080Z,918.38
2018-08-17T07:58:08.049Z,918.46
2018-08-17T07:59:08.047Z,918.48
2018-08-17T08:00:07.981Z,918.44
2018-08-17T08:01:07.950Z,918.46
2018-08-17T08:02:07.917Z,918.41
2018-08-17T08:03:07.886Z,918.40
2018-08-17T08:04:07.854Z,918.38
2018-08-17T08:05:07.826Z,918.37
2018-08-17T08:06:08.353Z,918.35
2018-08-17T08:07:07.769Z,918.37
2018-08-17T08:08:07.728Z,918.40
2018-08-17T08:09:07.698Z,918.38
2018-08-17T08:10:07.672Z,918.41
2018-08-17T08:11:07.764Z,918.42
2018-08-17T08:12:07.608Z,918.40
2018-08-17T08:13:07.571Z,918.42
2018-08-17T08:14:07.540Z,918.42
2018-08-17T08:15:07.511Z,918.43
2018-08-17T08:16:07.479Z,918.42
2018-08-17T08:17:07.748Z,918.40
2018-08-17T08:18:07.414Z,918.43
2018-08-17T08:19:07.385Z,918.40
2018-08-17T08:20:07.359Z,918.37
2018-08-17T08:21:07.329Z,918.39
2018-08-17T08:22:07.287Z,918.43
2018-08-17T08:23:07.365Z,918.48
2018-08-17T08:24:07.228Z,918.45
2018-08-17T08:25:07.194Z,918.50
2018-08-17T08:26:07.209Z,918.49
2018-08-17T08:27:07.131Z,918.49
2018-08-17T08:28:07.097Z,918.49
2018-08-17T08:29:07.072Z,918.49
2018-08-17T08:30:07.039Z,918.52
2018-08-17T08:31:07.009Z,918.52
2018-08-17T08:32:06.970Z,918.52
2018-08-17T08:33:06.941Z,918.51
2018-08-17T08:34:06.907Z,918.53
2018-08-17T08:35:06.877Z,918.54
2018-08-17T08:36:06.844Z,918.52
2018-08-17T08:37:06.819Z,918.52
2018-08-17T08:38:06.785Z,918.53
2018-08-17T08:40:06.719Z,918.54
2018-08-17T08:41:06.687Z,918.53
2018-08-17T08:42:06.655Z,918.50
2018-08-17T08:43:06.671Z,918.46
2018-08-17T08:44:06.691Z,918.46
2018-08-17T08:45:06.565Z,918.46
2018-08-17T08:46:06.534Z,918.51
2018-08-17T08:47:06.502Z,918.50
2018-08-17T08:48:06.467Z,918.47
2018-08-17T08:49:06.442Z,918.51
2018-08-17T08:50:06.804Z,918.52
2018-08-17T08:51:06.371Z,918.49
2018-08-17T08:52:06.336Z,918.50
2018-08-17T08:53:06.309Z,918.47
2018-08-17T08:54:06.278Z,918.43
2018-08-17T08:55:06.241Z,918.44
2018-08-17T08:56:06.350Z,918.41
2018-08-17T08:57:06.180Z,918.41
2018-08-17T08:58:06.151Z,918.41
2018-08-17T08:59:06.119Z,918.37
2018-08-17T09:00:06.085Z,918.37
2018-08-17T09:01:06.051Z,918.38
2018-08-17T09:02:06.033Z,918.34
2018-08-17T09:03:05.987Z,918.36
2018-08-17T09:04:05.955Z,918.38
2018-08-17T09:05:05.923Z,918.41
2018-08-17T09:06:05.897Z,918.41
2018-08-17T09:07:05.859Z,918.50
2018-08-17T09:08:05.861Z,918.54
2018-08-17T09:09:05.802Z,918.62
2018-08-17T09:10:05.774Z,918.68
2018-08-17T09:11:05.740Z,918.72
2018-08-17T09:12:05.703Z,918.76
2018-08-17T09:13:05.676Z,918.81
2018-08-17T09:14:05.705Z,918.83
2018-08-17T09:15:05.608Z,918.85
2018-08-17T09:16:05.579Z,918.85
2018-08-17T09:17:05.697Z,918.86
2018-08-17T09:18:05.512Z,918.84
2018-08-17T09:19:05.481Z,918.86
2018-08-17T09:20:05.451Z,918.85
2018-08-17T09:21:05.425Z,918.88
2018-08-17T09:22:05.393Z,918.88
2018-08-17T09:23:05.610Z,918.90
2018-08-17T09:24:05.337Z,918.88
2018-08-17T09:25:05.292Z,918.88
2018-08-17T09:26:05.259Z,918.87
2018-08-17T09:27:05.228Z,918.85
2018-08-17T09:28:05.196Z,918.87
2018-08-17T09:29:05.413Z,918.91
2018-08-17T09:30:05.184Z,918.84
2018-08-17T09:31:05.109Z,918.87
2018-08-17T09:32:05.072Z,918.84
2018-08-17T09:33:05.043Z,918.85
2018-08-17T09:34:05.018Z,918.84
2018-08-17T09:35:04.975Z,918.87
2018-08-17T09:36:04.974Z,918.88
2018-08-17T09:37:04.910Z,918.84
2018-08-17T09:38:04.884Z,918.88
2018-08-17T09:39:04.848Z,918.92
2018-08-17T09:40:04.835Z,918.98
2018-08-17T09:41:04.786Z,918.99
2018-08-17T09:42:04.791Z,918.96
2018-08-17T09:43:04.723Z,919.01
2018-08-17T09:44:04.693Z,919.05
2018-08-17T09:45:04.660Z,919.02
2018-08-17T09:46:04.632Z,919.08
2018-08-17T09:47:04.596Z,919.08
2018-08-17T09:48:04.562Z,919.10
2018-08-17T09:49:04.531Z,919.11
2018-08-17T09:50:04.704Z,919.10
2018-08-17T09:51:04.468Z,919.14
2018-08-17T09:52:04.433Z,919.14
2018-08-17T09:53:04.402Z,919.12
2018-08-17T09:54:04.374Z,919.14
2018-08-17T09:55:04.343Z,919.14
2018-08-17T09:56:04.508Z,919.14
2018-08-17T09:57:04.309Z,919.17
2018-08-17T09:58:04.246Z,919.19
2018-08-17T09:59:04.218Z,919.22
2018-08-17T10:00:04.179Z,919.18
2018-08-17T10:01:04.147Z,919.19
2018-08-17T10:03:04.084Z,919.22
2018-08-17T10:04:04.064Z,919.25
2018-08-17T10:05:04.032Z,919.25
2018-08-17T10:06:03.999Z,919.29
2018-08-17T10:08:03.934Z,919.31
2018-08-17T10:09:03.894Z,919.32
2018-08-17T10:10:03.864Z,919.34
2018-08-17T10:11:03.832Z,919.37
2018-08-17T10:12:03.797Z,919.35
2018-08-17T10:13:03.766Z,919.34
2018-08-17T10:14:03.733Z,919.28
2018-08-17T10:15:03.704Z,919.29
2018-08-17T10:16:03.677Z,919.29
2018-08-17T10:17:03.644Z,919.30
2018-08-17T10:18:03.611Z,919.34
2018-08-17T10:19:03.575Z,919.35
2018-08-17T10:20:03.599Z,919.42
2018-08-17T10:21:03.645Z,919.44
2018-08-17T10:22:03.621Z,919.47
2018-08-17T10:23:03.447Z,919.52
2018-08-17T10:24:03.444Z,919.51
2018-08-17T10:25:03.392Z,919.54
2018-08-17T10:26:03.355Z,919.52
2018-08-17T10:27:03.329Z,919.50
2018-08-17T10:28:03.291Z,919.55
2018-08-17T10:29:03.258Z,919.55
2018-08-17T10:30:03.223Z,919.53
2018-08-17T10:31:03.191Z,919.53
2018-08-17T10:32:03.165Z,919.54
2018-08-17T10:33:03.145Z,919.55
2018-08-17T10:34:03.246Z,919.58
2018-08-17T10:35:03.065Z,919.59
2018-08-17T10:36:03.040Z,919.64
2018-08-17T10:37:03.003Z,919.64
2018-08-17T10:38:02.973Z,919.70
2018-08-17T10:39:02.942Z,919.72
2018-08-17T10:40:02.905Z,919.73
2018-08-17T10:41:02.876Z,919.73
2018-08-17T10:42:02.846Z,919.74
2018-08-17T10:43:02.809Z,919.73
2018-08-17T10:44:02.781Z,919.75
2018-08-17T10:45:02.746Z,919.74
2018-08-17T10:46:02.722Z,919.71
2018-08-17T10:47:02.743Z,919.75
2018-08-17T10:48:02.667Z,919.75
2018-08-17T10:49:02.678Z,919.76
2018-08-17T10:50:02.590Z,919.80
2018-08-17T10:51:02.557Z,919.77
2018-08-17T10:52:02.530Z,919.80
2018-08-17T10:53:02.607Z,919.80
2018-08-17T10:54:02.463Z,919.80
2018-08-17T10:55:02.435Z,919.85
2018-08-17T10:56:02.400Z,919.85
2018-08-17T10:57:02.366Z,919.88
2018-08-17T10:58:02.343Z,919.87
2018-08-17T10:59:02.450Z,919.86
2018-08-17T11:00:02.271Z,919.90
2018-08-17T11:01:02.240Z,919.92
2018-08-17T11:02:02.209Z,919.97
2018-08-17T11:03:02.178Z,919.94
2018-08-17T11:04:02.185Z,920.01
2018-08-17T11:05:02.163Z,920.00
2018-08-17T11:06:02.142Z,920.09
2018-08-17T11:07:02.055Z,920.07
2018-08-17T11:08:02.035Z,920.08
2018-08-17T11:09:01.984Z,920.07
2018-08-17T11:10:01.957Z,920.06
2018-08-17T11:11:01.948Z,920.06
2018-08-17T11:12:01.893Z,920.05
2018-08-17T11:13:01.861Z,920.05
2018-08-17T11:14:01.830Z,920.07
2018-08-17T11:15:01.797Z,920.08
2018-08-17T11:16:01.762Z,920.05
2018-08-17T11:17:01.832Z,920.05
2018-08-17T11:18:01.703Z,920.05
2018-08-17T11:19:01.683Z,920.08
2018-08-17T11:20:01.870Z,920.05
2018-08-17T11:21:01.645Z,920.06
2018-08-17T11:22:01.601Z,920.05
2018-08-17T11:23:01.572Z,920.05
2018-08-17T11:24:01.514Z,920.09
2018-08-17T11:25:01.573Z,920.06
2018-08-17T11:26:01.444Z,920.10
2018-08-17T11:27:01.410Z,920.08
2018-08-17T11:28:01.401Z,920.06
2018-08-17T11:29:01.384Z,920.08
2018-08-17T11:30:01.330Z,920.08
2018-08-17T11:31:01.463Z,920.10
2018-08-17T11:32:01.309Z,920.12
2018-08-17T11:33:01.221Z,920.11
2018-08-17T11:34:01.203Z,920.11
2018-08-17T11:35:01.161Z,920.16
2018-08-17T11:36:01.124Z,920.13
2018-08-17T11:37:01.097Z,920.14
2018-08-17T11:38:01.066Z,920.13
2018-08-17T11:39:01.034Z,920.10
2018-08-17T11:40:01.032Z,920.12
2018-08-17T11:41:00.967Z,920.10
2018-08-17T11:42:00.939Z,920.09
2018-08-17T11:43:00.908Z,920.09
2018-08-17T11:44:00.872Z,920.10
2018-08-17T11:45:00.841Z,920.11
2018-08-17T11:46:01.207Z,920.11
2018-08-17T11:47:00.797Z,920.11
2018-08-17T11:48:00.780Z,920.15
2018-08-17T11:49:00.715Z,920.14
2018-08-17T11:50:00.679Z,920.13
2018-08-17T11:51:00.799Z,920.16
2018-08-17T11:52:00.624Z,920.17
2018-08-17T11:53:00.582Z,920.20
2018-08-17T11:54:00.672Z,920.23
2018-08-17T11:55:00.519Z,920.23
2018-08-17T11:56:00.743Z,920.24
2018-08-17T11:57:00.457Z,920.26
2018-08-17T11:58:00.430Z,920.27
2018-08-17T11:59:00.410Z,920.25
2018-08-17T12:00:00.364Z,920.24
2018-08-17T12:01:00.360Z,920.24
2018-08-17T12:02:00.684Z,920.29
2018-08-17T12:03:00.264Z,920.27
2018-08-17T12:04:00.284Z,920.27
2018-08-17T12:05:00.218Z,920.31
2018-08-17T12:06:00.178Z,920.30
2018-08-17T12:07:00.148Z,920.30
2018-08-17T12:08:00.431Z,920.30
2018-08-17T12:09:00.086Z,920.32
2018-08-17T12:10:00.048Z,920.32
2018-08-17T12:11:00.018Z,920.28
2018-08-17T12:11:59.989Z,920.32
2018-08-17T12:12:59.948Z,920.27
2018-08-17T12:13:59.920Z,920.26
2018-08-17T12:14:59.888Z,920.28
2018-08-17T12:15:59.862Z,920.24
2018-08-17T12:16:59.823Z,920.24
2018-08-17T12:17:59.795Z,920.26
2018-08-17T12:18:59.765Z,920.24
2018-08-17T12:19:59.733Z,920.25
2018-08-17T12:20:59.705Z,920.25
2018-08-17T12:21:59.687Z,920.24
2018-08-17T12:22:59.660Z,920.26
2018-08-17T12:23:59.931Z,920.30
2018-08-17T12:24:59.659Z,920.27
2018-08-17T12:25:59.562Z,920.29
2018-08-17T12:26:59.519Z,920.30
2018-08-17T12:27:59.479Z,920.32
2018-08-17T12:28:59.447Z,920.27
2018-08-17T12:29:59.817Z,920.31
2018-08-17T12:30:59.387Z,920.36
2018-08-17T12:31:59.378Z,920.33
2018-08-17T12:32:59.328Z,920.28